Pollux — OP2556 — position and weather

sailwx.info

Track history (hours):
 
Tides and Currents Weather Stations Pressure Air Temp Water Temp Dewpoint Dewpoint Depression Visibility Wind Speed Wind Dir Waves Ship Positions

Pollux

Last reported at 2017-Oct-15 16:01 UTC. Time now 2017-Nov-24 03:48 UTC.
Position N 38°52' W 076°27'.
Warning: this ship's position is 39 days out of date.

Length 14 m.

Type: Sailing vessel. MMSI: 205255630.

Date/timePositionNaut miles runAvg speedWind from/ knotsBaromVisibWave heightAir tempDewpointWater temp
2017-Oct-15 16:01N 38°52' W 076°27'0 7.0
2017-Oct-15 15:59N 38°52' W 076°27'3 6.5
2017-Oct-15 15:30N 38°52' W 076°31'1 2.6
2017-Oct-15 14:59N 38°51' W 076°32'0 0.0
2017-Oct-14 17:11N 38°51' W 076°32'0 0.0
2017-Oct-14 17:00N 38°51' W 076°32'0 0.1
2017-Oct-14 16:30N 38°51' W 076°32'2 3.5
2017-Oct-14 16:00N 38°52' W 076°31'0 0.0
2017-Oct-13 20:55N 38°52' W 076°31'2 4.5
2017-Oct-13 20:22N 38°53' W 076°28'5 3.9
2017-Oct-13 19:12N 38°57' W 076°32'0 0.0
2017-Oct-13 19:00N 38°57' W 076°32'  
2017-Oct-10 22:10N 38°57' W 076°32'0 0.0
2017-Oct-10 21:58N 38°57' W 076°32'0 0.0
2017-Oct-10 21:28N 38°57' W 076°32'0 0.0
2017-Oct-10 18:44N 38°57' W 076°32'0 0.0
2017-Oct-10 18:26N 38°57' W 076°32'1 3.3
2017-Oct-10 18:00N 38°56' W 076°31'3 6.8
2017-Oct-10 17:30N 38°54' W 076°28'3 5.7
2017-Oct-10 17:00N 38°56' W 076°26'3 6.9
2017-Oct-10 16:30N 38°59' W 076°29'0 0.4
2017-Oct-10 16:00N 38°58' W 076°29'  
2017-Oct-06 18:27N 39°24' W 076°04'4 8.5
2017-Oct-06 17:58N 39°27' W 075°59'4 8.6
2017-Oct-06 17:30N 39°30' W 075°56'4 8.7
2017-Oct-06 17:00N 39°32' W 075°51'4 8.7
2017-Oct-06 16:30N 39°32' W 075°45'4 8.1
2017-Oct-06 16:00N 39°33' W 075°40'4 7.6
2017-Oct-06 15:30N 39°33' W 075°35'1 2.5
2017-Oct-06 15:00N 39°35' W 075°35'  
Track history (hours):
 
Tides and Currents Weather Stations Pressure Air Temp Water Temp Dewpoint Dewpoint Depression Visibility Wind Speed Wind Dir Waves Ship Positions

Pollux

Last reported at 2017-Oct-15 16:01 UTC. Time now 2017-Nov-24 03:48 UTC.
Position N 38°52' W 076°27'.
Warning: this ship's position is 39 days out of date.

Length 14 m.

Type: Sailing vessel. MMSI: 205255630.

Date/timePositionNaut miles runAvg speedWind from/ knotsBaromVisibWave heightAir tempDewpointWater temp
2017-Oct-15 16:01N 38°52' W 076°27'0 7.0
2017-Oct-15 15:59N 38°52' W 076°27'3 6.5
2017-Oct-15 15:30N 38°52' W 076°31'1 2.6
2017-Oct-15 14:59N 38°51' W 076°32'0 0.0
2017-Oct-14 17:11N 38°51' W 076°32'0 0.0
2017-Oct-14 17:00N 38°51' W 076°32'0 0.1
2017-Oct-14 16:30N 38°51' W 076°32'2 3.5
2017-Oct-14 16:00N 38°52' W 076°31'0 0.0
2017-Oct-13 20:55N 38°52' W 076°31'2 4.5
2017-Oct-13 20:22N 38°53' W 076°28'5 3.9
2017-Oct-13 19:12N 38°57' W 076°32'0 0.0
2017-Oct-13 19:00N 38°57' W 076°32'  
2017-Oct-10 22:10N 38°57' W 076°32'0 0.0
2017-Oct-10 21:58N 38°57' W 076°32'0 0.0
2017-Oct-10 21:28N 38°57' W 076°32'0 0.0
2017-Oct-10 18:44N 38°57' W 076°32'0 0.0
2017-Oct-10 18:26N 38°57' W 076°32'1 3.3
2017-Oct-10 18:00N 38°56' W 076°31'3 6.8
2017-Oct-10 17:30N 38°54' W 076°28'3 5.7
2017-Oct-10 17:00N 38°56' W 076°26'3 6.9
2017-Oct-10 16:30N 38°59' W 076°29'0 0.4
2017-Oct-10 16:00N 38°58' W 076°29'  
2017-Oct-06 18:27N 39°24' W 076°04'4 8.5
2017-Oct-06 17:58N 39°27' W 075°59'4 8.6
2017-Oct-06 17:30N 39°30' W 075°56'4 8.7
2017-Oct-06 17:00N 39°32' W 075°51'4 8.7
2017-Oct-06 16:30N 39°32' W 075°45'4 8.1
2017-Oct-06 16:00N 39°33' W 075°40'4 7.6
2017-Oct-06 15:30N 39°33' W 075°35'1 2.5
2017-Oct-06 15:00N 39°35' W 075°35'  

Dump ship's entire track history